createdAt,value
2017-10-25T00:02:13.066Z,93.11
2017-10-25T00:04:40.567Z,93.43
2017-10-25T00:07:08.139Z,93.44
2017-10-25T00:09:35.769Z,93.87
2017-10-25T00:12:03.280Z,94.74
2017-10-25T00:14:30.822Z,94.65
2017-10-25T00:16:58.329Z,94.85
2017-10-25T00:19:25.852Z,95.11
2017-10-25T00:22:08.263Z,95.24
2017-10-25T00:27:31.995Z,94.80
2017-10-25T00:29:59.521Z,94.77
2017-10-25T00:32:27.036Z,94.84
2017-10-25T00:34:54.655Z,93.45
2017-10-25T00:37:22.154Z,91.43
2017-10-25T00:39:49.664Z,91.30
2017-10-25T00:42:17.172Z,90.98
2017-10-25T00:44:44.682Z,89.63
2017-10-25T00:47:12.198Z,89.71
2017-10-25T00:49:39.695Z,89.22
2017-10-25T00:52:07.196Z,88.43
2017-10-25T00:54:34.716Z,87.86
2017-10-25T00:57:02.239Z,88.61
2017-10-25T00:59:29.733Z,89.00
2017-10-25T01:01:57.261Z,90.01
2017-10-25T01:04:24.805Z,89.72
2017-10-25T01:06:52.316Z,88.98
2017-10-25T01:09:20.024Z,87.93
2017-10-25T01:11:47.545Z,87.95
2017-10-25T01:14:15.051Z,88.31
2017-10-25T01:16:45.792Z,87.72
2017-10-25T01:19:13.291Z,88.97
2017-10-25T01:21:40.807Z,89.71
2017-10-25T01:24:08.316Z,90.01
2017-10-25T01:26:35.829Z,89.33
2017-10-25T01:29:03.340Z,88.35
2017-10-25T01:31:30.910Z,87.25
2017-10-25T01:33:58.470Z,87.53
2017-10-25T01:36:30.104Z,88.00
2017-10-25T01:38:57.635Z,88.49
2017-10-25T01:41:25.147Z,89.02
2017-10-25T01:43:52.663Z,89.44
2017-10-25T01:46:20.202Z,89.64
2017-10-25T01:48:47.714Z,90.02
2017-10-25T01:51:15.236Z,90.27
2017-10-25T01:53:42.754Z,90.27
2017-10-25T01:56:10.271Z,92.99
2017-10-25T01:58:37.792Z,93.62
2017-10-25T02:01:05.351Z,94.15
2017-10-25T02:03:32.870Z,95.08
2017-10-25T02:06:00.381Z,94.63
2017-10-25T02:08:27.894Z,94.22
2017-10-25T02:10:55.394Z,94.33
2017-10-25T02:13:22.916Z,94.87
2017-10-25T02:15:50.421Z,94.53
2017-10-25T02:18:19.651Z,94.61
2017-10-25T02:20:47.144Z,94.21
2017-10-25T02:25:48.403Z,93.85
2017-10-25T02:28:15.938Z,94.15
2017-10-25T02:30:43.434Z,93.73
2017-10-25T02:33:10.951Z,92.99
2017-10-25T02:35:38.468Z,93.15
2017-10-25T02:38:05.992Z,93.03
2017-10-25T02:40:33.525Z,93.11
2017-10-25T02:43:01.030Z,93.92
2017-10-25T02:45:28.575Z,94.38
2017-10-25T02:47:56.113Z,94.79
2017-10-25T02:50:23.619Z,94.96
2017-10-25T02:52:51.137Z,94.69
2017-10-25T02:55:19.376Z,94.59
2017-10-25T02:57:46.883Z,94.68
2017-10-25T03:00:14.407Z,94.22
2017-10-25T03:02:41.914Z,94.28
2017-10-25T03:08:06.530Z,94.04
2017-10-25T03:10:34.044Z,94.00
2017-10-25T03:13:01.559Z,94.19
2017-10-25T03:15:29.060Z,94.41
2017-10-25T03:17:56.576Z,93.83
2017-10-25T03:20:24.096Z,92.93
2017-10-25T03:22:51.596Z,92.00
2017-10-25T03:25:19.134Z,92.28
2017-10-25T03:27:46.638Z,91.38
2017-10-25T03:30:14.147Z,91.17
2017-10-25T03:32:41.668Z,92.35
2017-10-25T03:35:09.180Z,93.95
2017-10-25T03:37:39.137Z,93.97
2017-10-25T03:40:06.689Z,93.74
2017-10-25T03:42:34.210Z,93.32
2017-10-25T03:45:01.743Z,92.50
2017-10-25T03:50:42.166Z,90.65
2017-10-25T03:53:09.688Z,91.57
2017-10-25T03:55:37.207Z,90.90
2017-10-25T04:09:39.599Z,92.12
2017-10-25T04:12:07.119Z,91.52
2017-10-25T04:14:34.640Z,92.78
2017-10-25T04:17:02.158Z,93.43
2017-10-25T04:19:29.681Z,93.68
2017-10-25T04:21:57.200Z,94.14
2017-10-25T04:24:24.728Z,94.24
2017-10-25T04:26:52.240Z,94.17
2017-10-25T04:29:19.744Z,94.26
2017-10-25T04:31:47.250Z,93.97
2017-10-25T04:34:15.664Z,93.82
2017-10-25T04:36:43.200Z,93.86
2017-10-25T04:39:10.714Z,94.15
2017-10-25T04:41:44.928Z,94.36
2017-10-25T04:44:12.467Z,94.56
2017-10-25T04:46:40.007Z,94.80
2017-10-25T04:49:07.529Z,94.92
2017-10-25T04:51:35.107Z,94.93
2017-10-25T04:54:02.657Z,95.15
2017-10-25T04:56:30.162Z,95.12
2017-10-25T04:58:57.686Z,95.21
2017-10-25T05:01:25.214Z,95.60
2017-10-25T05:03:52.782Z,95.03
2017-10-25T05:06:20.288Z,95.45
2017-10-25T05:08:47.791Z,95.90
2017-10-25T05:11:15.298Z,96.23
2017-10-25T05:13:42.815Z,95.84
2017-10-25T05:16:10.320Z,95.43
2017-10-25T05:18:37.838Z,95.02
2017-10-25T05:21:05.353Z,95.24
2017-10-25T05:35:17.502Z,97.72
2017-10-25T05:37:45.008Z,97.72
2017-10-25T05:40:12.531Z,97.28
2017-10-25T05:42:40.035Z,96.95
2017-10-25T05:45:07.540Z,97.80
2017-10-25T05:47:35.049Z,98.00
2017-10-25T05:50:02.553Z,98.13
2017-10-25T05:52:30.057Z,98.07
2017-10-25T05:54:57.572Z,98.05
2017-10-25T05:57:25.081Z,98.17
2017-10-25T05:59:52.604Z,98.28
2017-10-25T06:02:20.128Z,97.97
2017-10-25T06:07:48.843Z,96.83
2017-10-25T06:10:16.373Z,97.58
2017-10-25T06:12:43.909Z,97.35
2017-10-25T06:15:11.442Z,98.06
2017-10-25T06:17:38.983Z,97.85
2017-10-25T06:20:06.500Z,97.79
2017-10-25T06:22:34.008Z,97.46
2017-10-25T06:25:01.534Z,97.04
2017-10-25T06:27:38.978Z,96.31
2017-10-25T06:30:07.479Z,96.09
2017-10-25T06:32:34.983Z,97.00
2017-10-25T06:35:02.488Z,96.53
2017-10-25T06:37:29.996Z,96.31
2017-10-25T06:39:57.508Z,95.91
2017-10-25T06:42:25.020Z,96.22
2017-10-25T06:44:52.545Z,96.00
2017-10-25T06:47:20.051Z,95.28
2017-10-25T06:49:57.487Z,95.20
2017-10-25T06:52:24.986Z,95.04
2017-10-25T06:54:52.507Z,94.75
2017-10-25T06:57:22.877Z,94.39
2017-10-25T06:59:50.424Z,94.51
2017-10-25T07:02:17.956Z,93.34
2017-10-25T07:04:45.480Z,93.62
2017-10-25T07:07:12.977Z,92.78
2017-10-25T07:09:40.482Z,93.46
2017-10-25T07:12:08.009Z,94.27
2017-10-25T07:14:35.527Z,94.35
2017-10-25T07:17:03.052Z,94.49
2017-10-25T07:19:30.556Z,94.88
2017-10-25T07:21:58.067Z,94.21
2017-10-25T07:24:25.586Z,93.36
2017-10-25T07:26:53.098Z,91.18
2017-10-25T07:29:20.604Z,90.62
2017-10-25T07:31:48.118Z,90.90
2017-10-25T07:34:15.655Z,91.43
2017-10-25T07:36:43.176Z,91.40
2017-10-25T07:39:10.685Z,90.85
2017-10-25T07:41:38.198Z,89.81
2017-10-25T07:44:05.722Z,89.25
2017-10-25T07:46:43.163Z,87.65
2017-10-25T07:49:10.667Z,86.33
2017-10-25T07:51:38.177Z,86.03
2017-10-25T07:54:05.696Z,85.08
2017-10-25T07:56:33.200Z,83.64
2017-10-25T07:59:00.706Z,83.99
2017-10-25T08:01:28.204Z,78.00
2017-10-25T08:15:28.547Z,65.30
2017-10-25T08:17:56.055Z,66.34
2017-10-25T08:20:23.562Z,66.35
2017-10-25T08:22:51.101Z,67.87
2017-10-25T08:25:18.603Z,69.02
2017-10-25T08:27:46.099Z,73.65
2017-10-25T08:30:13.639Z,76.74
2017-10-25T08:32:41.160Z,73.68
2017-10-25T08:35:08.669Z,73.01
2017-10-25T08:37:36.203Z,71.61
2017-10-25T08:40:03.767Z,73.32
2017-10-25T08:42:31.728Z,72.08
2017-10-25T08:44:59.341Z,73.77
2017-10-25T08:47:26.835Z,72.41
2017-10-25T08:49:56.027Z,70.12
2017-10-25T08:52:23.547Z,71.14
2017-10-25T08:54:51.998Z,72.35
2017-10-25T08:57:19.524Z,70.09
2017-10-25T08:59:47.078Z,68.66
2017-10-25T09:02:14.642Z,68.84
2017-10-25T09:04:42.144Z,69.93
2017-10-25T09:07:09.656Z,70.70
2017-10-25T09:09:44.138Z,70.80
2017-10-25T09:12:11.659Z,70.68
2017-10-25T09:14:39.163Z,69.88
2017-10-25T09:17:06.699Z,72.09
2017-10-25T09:19:34.209Z,71.82
2017-10-25T09:22:01.746Z,72.26
2017-10-25T09:24:29.263Z,70.99
2017-10-25T09:26:56.778Z,70.62
2017-10-25T09:29:24.285Z,70.72
2017-10-25T09:31:51.801Z,69.35
2017-10-25T09:34:19.313Z,66.23
2017-10-25T09:36:46.814Z,63.53
2017-10-25T09:39:14.343Z,54.36
2017-10-25T09:41:41.914Z,54.15
2017-10-25T09:44:09.426Z,47.21
2017-10-25T09:46:36.953Z,50.80
2017-10-25T09:49:04.468Z,55.23
2017-10-25T09:51:31.979Z,55.94
2017-10-25T09:53:59.483Z,54.35
2017-10-25T09:56:26.983Z,56.83
2017-10-25T09:58:55.084Z,55.90
2017-10-25T10:01:22.593Z,54.34
2017-10-25T10:15:24.607Z,57.66
2017-10-25T10:17:52.305Z,59.77
2017-10-25T10:20:19.823Z,60.81
2017-10-25T10:22:47.371Z,60.50
2017-10-25T10:25:14.912Z,60.12
2017-10-25T10:27:42.420Z,60.04
2017-10-25T10:30:09.933Z,54.80
2017-10-25T10:32:40.392Z,54.51
2017-10-25T10:35:07.906Z,47.35
2017-10-25T10:37:35.413Z,50.73
2017-10-25T10:40:02.931Z,49.46
2017-10-25T10:42:30.477Z,44.25
2017-10-25T10:44:57.992Z,43.00
2017-10-25T10:47:25.511Z,42.95
2017-10-25T10:49:53.032Z,37.66
2017-10-25T10:52:20.562Z,36.76
2017-10-25T10:54:48.067Z,33.84
2017-10-25T10:57:15.684Z,34.60
2017-10-25T10:59:43.191Z,34.94
2017-10-25T11:02:10.697Z,33.48
2017-10-25T11:04:38.211Z,30.86
2017-10-25T11:07:05.728Z,31.29
2017-10-25T11:09:33.262Z,31.36
2017-10-25T11:12:00.784Z,30.92
2017-10-25T11:14:28.300Z,28.97
2017-10-25T11:16:55.821Z,31.59
2017-10-25T11:19:23.356Z,40.77
2017-10-25T11:21:50.852Z,44.92
2017-10-25T11:24:18.363Z,39.43
2017-10-25T11:26:45.867Z,33.37
2017-10-25T11:29:13.400Z,33.00
2017-10-25T11:31:45.951Z,33.08
2017-10-25T11:34:13.476Z,31.09
2017-10-25T11:36:40.996Z,34.86
2017-10-25T11:39:08.511Z,39.29
2017-10-25T11:41:36.028Z,34.12
2017-10-25T11:44:03.540Z,33.06
2017-10-25T11:46:31.057Z,30.87
2017-10-25T11:48:58.584Z,32.50
2017-10-25T11:51:26.114Z,37.95
2017-10-25T11:53:53.635Z,39.36
2017-10-25T11:56:21.164Z,45.41
2017-10-25T11:58:48.684Z,44.59
2017-10-25T12:01:16.219Z,45.42
2017-10-25T12:03:43.812Z,48.62
2017-10-25T12:06:11.337Z,50.83
2017-10-25T12:08:50.647Z,52.62
2017-10-25T12:11:18.218Z,51.42
2017-10-25T12:13:45.749Z,51.88
2017-10-25T12:16:13.273Z,49.73
2017-10-25T12:18:40.797Z,52.69
2017-10-25T12:21:08.299Z,49.36
2017-10-25T12:23:37.520Z,48.09
2017-10-25T12:26:05.032Z,43.73
2017-10-25T12:28:33.419Z,42.37
2017-10-25T12:31:00.930Z,39.79
2017-10-25T12:33:28.471Z,38.50
2017-10-25T12:35:55.982Z,35.09
2017-10-25T12:38:23.911Z,31.60
2017-10-25T12:40:51.435Z,31.65
2017-10-25T12:43:18.944Z,31.56
2017-10-25T12:45:46.439Z,28.77
2017-10-25T12:48:13.944Z,30.58
2017-10-25T12:50:41.458Z,36.23
2017-10-25T12:53:08.972Z,38.91
2017-10-25T12:55:36.477Z,37.80
2017-10-25T12:58:04.033Z,36.14
2017-10-25T13:00:31.536Z,39.87
2017-10-25T13:02:59.061Z,42.66
2017-10-25T13:05:29.359Z,42.90
2017-10-25T13:07:56.903Z,41.92
2017-10-25T13:10:35.135Z,44.83
2017-10-25T13:16:11.817Z,46.83
2017-10-25T13:18:44.334Z,43.61
2017-10-25T13:21:11.853Z,44.06
2017-10-25T13:23:39.365Z,46.43
2017-10-25T13:26:06.914Z,46.05
2017-10-25T13:28:34.451Z,46.41
2017-10-25T13:31:02.008Z,47.05
2017-10-25T13:33:39.953Z,43.87
2017-10-25T13:36:07.479Z,47.72
2017-10-25T13:38:34.996Z,44.14
2017-10-25T13:41:17.050Z,42.24
2017-10-25T13:43:44.576Z,47.32
2017-10-25T13:46:12.092Z,46.94
2017-10-25T13:48:39.616Z,50.50
2017-10-25T13:51:07.133Z,52.11
2017-10-25T13:53:34.649Z,55.07
2017-10-25T13:56:02.174Z,55.93
2017-10-25T13:58:29.688Z,56.20
2017-10-25T14:00:57.220Z,57.50
2017-10-25T14:03:28.412Z,57.34
2017-10-25T14:05:55.940Z,57.92
2017-10-25T14:08:23.482Z,58.12
2017-10-25T14:10:51.112Z,57.39
2017-10-25T14:13:18.636Z,58.10
2017-10-25T14:15:46.168Z,57.60
2017-10-25T14:18:13.692Z,57.08
2017-10-25T14:20:41.216Z,57.94
2017-10-25T14:23:08.734Z,57.65
2017-10-25T14:25:36.251Z,57.15
2017-10-25T14:28:15.610Z,57.98
2017-10-25T14:30:43.983Z,57.80
2017-10-25T14:33:11.495Z,57.49
2017-10-25T14:35:38.995Z,58.95
2017-10-25T14:38:06.590Z,58.45
2017-10-25T14:40:34.096Z,59.88
2017-10-25T14:43:01.651Z,59.86
2017-10-25T14:45:29.155Z,60.03
2017-10-25T14:50:38.353Z,57.94
2017-10-25T14:53:05.854Z,57.33
2017-10-25T14:55:33.388Z,59.22
2017-10-25T14:58:00.919Z,60.76
2017-10-25T15:00:28.423Z,61.44
2017-10-25T15:02:56.002Z,62.88
2017-10-25T15:05:23.524Z,63.43
2017-10-25T15:07:51.034Z,63.78
2017-10-25T15:10:18.545Z,63.90
2017-10-25T15:12:46.063Z,64.86
2017-10-25T15:15:13.584Z,64.20
2017-10-25T15:17:41.104Z,64.28
2017-10-25T15:20:08.624Z,65.96
2017-10-25T15:22:36.144Z,66.07
2017-10-25T15:25:03.692Z,67.13
2017-10-25T15:27:44.747Z,67.60
2017-10-25T15:30:12.280Z,68.79
2017-10-25T15:32:39.798Z,70.38
2017-10-25T15:38:05.844Z,69.04
2017-10-25T15:40:33.425Z,70.49
2017-10-25T15:43:00.935Z,71.42
2017-10-25T15:45:28.578Z,72.93
2017-10-25T15:47:56.105Z,73.59
2017-10-25T15:50:23.644Z,75.80
2017-10-25T15:52:51.183Z,75.96
2017-10-25T15:55:18.688Z,75.94
2017-10-25T15:57:46.208Z,77.77
2017-10-25T16:00:13.744Z,78.91
2017-10-25T16:02:41.260Z,79.33
2017-10-25T16:05:08.788Z,81.35
2017-10-25T16:07:36.333Z,82.01
2017-10-25T16:10:08.387Z,82.36
2017-10-25T16:12:35.900Z,83.72
2017-10-25T16:15:03.437Z,84.57
2017-10-25T16:17:30.970Z,84.30
2017-10-25T16:19:58.494Z,85.04
2017-10-25T16:22:26.007Z,85.40
2017-10-25T16:24:53.570Z,85.80
2017-10-25T16:27:21.242Z,86.00
2017-10-25T16:29:48.756Z,86.73
2017-10-25T16:32:17.242Z,85.03
2017-10-25T16:46:16.642Z,87.48
2017-10-25T16:48:44.160Z,88.10
2017-10-25T16:51:11.724Z,89.96
2017-10-25T16:53:39.241Z,90.64
2017-10-25T16:56:06.757Z,88.81
2017-10-25T16:58:34.304Z,88.61
2017-10-25T17:01:01.826Z,88.86
2017-10-25T17:03:29.353Z,89.62
2017-10-25T17:05:56.872Z,89.87
2017-10-25T17:08:24.400Z,88.80
2017-10-25T17:10:51.956Z,88.71
2017-10-25T17:13:19.489Z,89.91
2017-10-25T17:15:47.023Z,89.34
2017-10-25T17:18:14.562Z,90.30
2017-10-25T17:20:42.119Z,92.25
2017-10-25T17:23:09.648Z,91.97
2017-10-25T17:25:37.167Z,89.88
2017-10-25T17:28:04.695Z,89.07
2017-10-25T17:30:32.295Z,88.49
2017-10-25T17:35:56.062Z,89.23
2017-10-25T17:38:23.624Z,90.87
2017-10-25T17:40:51.209Z,90.91
2017-10-25T17:43:18.736Z,90.10
2017-10-25T17:45:46.408Z,91.90
2017-10-25T17:48:13.936Z,92.72
2017-10-25T17:50:41.499Z,91.88
2017-10-25T17:53:09.030Z,91.84
2017-10-25T17:55:36.571Z,90.71
2017-10-25T17:58:04.118Z,90.99
2017-10-25T18:00:31.643Z,90.95
2017-10-25T18:02:59.182Z,91.47
2017-10-25T18:05:27.095Z,91.06
2017-10-25T18:07:54.601Z,92.75
2017-10-25T18:10:22.120Z,93.69
2017-10-25T18:13:00.076Z,93.55
2017-10-25T18:18:23.855Z,94.56
2017-10-25T18:20:51.400Z,95.33
2017-10-25T18:23:18.937Z,94.35
2017-10-25T18:25:46.468Z,93.43
2017-10-25T18:28:13.996Z,92.58
2017-10-25T18:30:41.526Z,92.15
2017-10-25T18:33:09.043Z,94.42
2017-10-25T18:47:13.250Z,93.76
2017-10-25T18:49:40.781Z,94.28
2017-10-25T18:52:08.313Z,94.95
2017-10-25T18:54:35.837Z,94.57
2017-10-25T18:57:03.410Z,94.63
2017-10-25T18:59:30.952Z,94.90
2017-10-25T19:01:58.595Z,95.46
2017-10-25T19:04:26.124Z,95.83
2017-10-25T19:06:53.662Z,96.14
2017-10-25T19:09:21.168Z,95.87
2017-10-25T19:11:50.100Z,94.79
2017-10-25T19:14:17.594Z,93.98
2017-10-25T19:16:45.128Z,93.96
2017-10-25T19:19:12.676Z,93.59
2017-10-25T19:21:40.197Z,94.27
2017-10-25T19:24:07.736Z,95.57
2017-10-25T19:26:35.310Z,96.62
2017-10-25T19:29:03.023Z,96.79
2017-10-25T19:31:42.278Z,95.78
2017-10-25T19:34:09.795Z,94.60
2017-10-25T19:36:37.445Z,93.74
2017-10-25T19:39:05.056Z,93.75
2017-10-25T19:41:32.604Z,93.19
2017-10-25T19:44:00.111Z,92.04
2017-10-25T19:46:27.673Z,92.17
2017-10-25T19:48:55.328Z,91.14
2017-10-25T19:51:22.887Z,89.93
2017-10-25T19:53:50.427Z,90.20
2017-10-25T19:56:17.989Z,91.12
2017-10-25T19:58:45.543Z,92.49
2017-10-25T20:01:13.114Z,93.19
2017-10-25T20:03:48.515Z,93.59
2017-10-25T20:06:16.041Z,92.61
2017-10-25T20:08:43.573Z,91.60
2017-10-25T20:11:11.085Z,92.76
2017-10-25T20:13:38.684Z,94.76
2017-10-25T20:16:06.248Z,94.61
2017-10-25T20:18:33.770Z,93.80
2017-10-25T20:21:01.302Z,93.83
2017-10-25T20:23:28.814Z,95.35
2017-10-25T20:25:57.220Z,95.94
2017-10-25T20:28:24.787Z,96.46
2017-10-25T20:30:52.317Z,96.50
2017-10-25T20:33:19.835Z,96.03
2017-10-25T20:35:47.364Z,96.43
2017-10-25T20:38:14.875Z,95.75
2017-10-25T20:40:42.394Z,94.99
2017-10-25T20:43:09.916Z,94.36
2017-10-25T20:45:37.465Z,95.15
2017-10-25T20:48:06.710Z,95.09
2017-10-25T20:50:34.245Z,94.60
2017-10-25T20:53:01.790Z,94.03
2017-10-25T20:55:39.833Z,93.54
2017-10-25T20:58:07.336Z,92.85
2017-10-25T21:00:34.862Z,92.74
2017-10-25T21:03:18.175Z,92.86
2017-10-25T21:05:45.697Z,91.95
2017-10-25T21:08:13.223Z,91.97
2017-10-25T21:10:40.729Z,91.69
2017-10-25T21:13:08.244Z,92.04
2017-10-25T21:15:39.769Z,93.01
2017-10-25T21:18:07.281Z,93.38
2017-10-25T21:20:44.725Z,93.38
2017-10-25T21:23:12.269Z,93.97
2017-10-25T21:25:39.790Z,94.06
2017-10-25T21:28:07.324Z,93.43
2017-10-25T21:30:34.835Z,94.75
2017-10-25T21:33:02.350Z,94.31
2017-10-25T21:35:29.872Z,93.02
2017-10-25T21:37:57.405Z,91.82
2017-10-25T21:43:21.108Z,91.49
2017-10-25T21:45:48.637Z,92.08
2017-10-25T21:48:16.175Z,91.51
2017-10-25T21:50:43.677Z,92.08
2017-10-25T21:53:12.007Z,91.05
2017-10-25T21:55:39.527Z,91.59
2017-10-25T21:58:07.033Z,92.23
2017-10-25T22:00:34.563Z,92.78
2017-10-25T22:03:02.080Z,93.02
2017-10-25T22:05:29.606Z,93.79
2017-10-25T22:07:57.111Z,93.97
2017-10-25T22:10:24.641Z,93.75
2017-10-25T22:13:02.085Z,93.41
2017-10-25T22:15:29.610Z,92.78
2017-10-25T22:17:57.119Z,93.97
2017-10-25T22:31:57.474Z,94.26
2017-10-25T22:34:24.991Z,94.27
2017-10-25T22:36:52.504Z,94.46
2017-10-25T22:39:20.013Z,94.67
2017-10-25T22:41:47.545Z,94.48
2017-10-25T22:44:15.090Z,94.84
2017-10-25T22:46:42.720Z,93.84
2017-10-25T22:49:10.242Z,94.42
2017-10-25T22:51:40.564Z,94.83
2017-10-25T22:54:08.066Z,94.41
2017-10-25T22:56:35.605Z,92.80
2017-10-25T22:59:03.119Z,92.90
2017-10-25T23:01:30.657Z,93.38
2017-10-25T23:03:58.169Z,94.71
2017-10-25T23:06:25.705Z,94.46
2017-10-25T23:08:53.240Z,94.43
2017-10-25T23:11:24.089Z,94.77
2017-10-25T23:13:51.621Z,94.47
2017-10-25T23:16:19.146Z,94.43
2017-10-25T23:18:46.672Z,93.51
2017-10-25T23:21:14.172Z,93.58
2017-10-25T23:23:41.705Z,93.99
2017-10-25T23:26:21.848Z,93.79
2017-10-25T23:28:53.379Z,94.11
2017-10-25T23:42:52.796Z,94.37
2017-10-25T23:45:30.231Z,93.90
2017-10-25T23:47:57.760Z,93.07
2017-10-25T23:50:35.918Z,92.82
2017-10-25T23:53:03.423Z,92.50
2017-10-25T23:55:30.957Z,92.98
2017-10-25T23:57:58.485Z,92.97
